sensor_id;sensor_type;location;lat;lon;timestamp;pressure;altitude;pressure_sealevel;temperature;humidity
71966;BME280;59836;52.132;5.442;2023-03-31T00:01:50;100361.66;;;10.30;86.28
71966;BME280;59836;52.132;5.442;2023-03-31T00:04:18;100357.31;;;10.29;86.04
71966;BME280;59836;52.132;5.442;2023-03-31T00:06:49;100352.97;;;10.28;86.97
71966;BME280;59836;52.132;5.442;2023-03-31T00:09:20;100342.66;;;10.30;87.02
71966;BME280;59836;52.132;5.442;2023-03-31T00:11:48;100334.00;;;10.28;87.01
71966;BME280;59836;52.132;5.442;2023-03-31T00:14:16;100330.22;;;10.29;87.24
71966;BME280;59836;52.132;5.442;2023-03-31T00:16:43;100329.41;;;10.29;87.02
71966;BME280;59836;52.132;5.442;2023-03-31T00:19:11;100325.63;;;10.30;87.57
71966;BME280;59836;52.132;5.442;2023-03-31T00:21:44;100320.47;;;10.28;87.97
71966;BME280;59836;52.132;5.442;2023-03-31T00:24:11;100313.38;;;10.32;87.53
71966;BME280;59836;52.132;5.442;2023-03-31T00:26:38;100311.78;;;10.31;87.54
71966;BME280;59836;52.132;5.442;2023-03-31T00:29:06;100313.38;;;10.32;87.61
71966;BME280;59836;52.132;5.442;2023-03-31T00:31:33;100297.13;;;10.32;87.75
71966;BME280;59836;52.132;5.442;2023-03-31T00:34:01;100291.72;;;10.32;87.54
71966;BME280;59836;52.132;5.442;2023-03-31T00:36:27;100293.31;;;10.33;88.15
71966;BME280;59836;52.132;5.442;2023-03-31T00:39:00;100286.28;;;10.32;88.11
71966;BME280;59836;52.132;5.442;2023-03-31T00:41:36;100278.69;;;10.34;87.96
71966;BME280;59836;52.132;5.442;2023-03-31T00:46:40;100261.88;;;10.32;88.33
71966;BME280;59836;52.132;5.442;2023-03-31T00:49:13;100261.63;;;10.34;88.14
71966;BME280;59836;52.132;5.442;2023-03-31T00:51:42;100251.56;;;10.34;88.23
71966;BME280;59836;52.132;5.442;2023-03-31T00:54:09;100253.72;;;10.38;88.28
71966;BME280;59836;52.132;5.442;2023-03-31T00:56:39;100248.28;;;10.38;88.18
71966;BME280;59836;52.132;5.442;2023-03-31T00:59:10;100240.16;;;10.38;88.39
71966;BME280;59836;52.132;5.442;2023-03-31T01:01:38;100239.38;;;10.37;88.48
71966;BME280;59836;52.132;5.442;2023-03-31T01:04:09;100233.94;;;10.37;88.38
71966;BME280;59836;52.132;5.442;2023-03-31T01:06:43;100228.78;;;10.41;88.27
71966;BME280;59836;52.132;5.442;2023-03-31T01:09:15;100232.03;;;10.43;88.45
71966;BME280;59836;52.132;5.442;2023-03-31T01:11:43;100227.13;;;10.45;88.48
71966;BME280;59836;52.132;5.442;2023-03-31T01:14:11;100221.19;;;10.43;89.07
71966;BME280;59836;52.132;5.442;2023-03-31T01:16:38;100216.81;;;10.47;88.62
71966;BME280;59836;52.132;5.442;2023-03-31T01:19:14;100199.75;;;10.46;89.29
71966;BME280;59836;52.132;5.442;2023-03-31T01:24:52;100191.34;;;10.43;90.47
71966;BME280;59836;52.132;5.442;2023-03-31T01:27:53;100175.41;;;10.41;90.80
71966;BME280;59836;52.132;5.442;2023-03-31T01:30:42;100179.44;;;10.39;91.32
71966;BME280;59836;52.132;5.442;2023-03-31T01:33:34;100172.41;;;10.38;91.58
71966;BME280;59836;52.132;5.442;2023-03-31T01:36:29;100157.22;;;10.37;91.94
71966;BME280;59836;52.132;5.442;2023-03-31T01:44:32;100144.25;;;10.33;92.51
71966;BME280;59836;52.132;5.442;2023-03-31T01:47:08;100131.53;;;10.34;92.61
71966;BME280;59836;52.132;5.442;2023-03-31T01:49:45;100126.88;;;10.34;93.06
71966;BME280;59836;52.132;5.442;2023-03-31T01:52:19;100132.31;;;10.34;93.35
71966;BME280;59836;52.132;5.442;2023-03-31T01:54:50;100122.34;;;10.30;93.56
71966;BME280;59836;52.132;5.442;2023-03-31T01:57:26;100110.69;;;10.29;93.29
71966;BME280;59836;52.132;5.442;2023-03-31T02:00:12;100104.72;;;10.27;93.48
71966;BME280;59836;52.132;5.442;2023-03-31T02:05:12;100100.34;;;10.31;94.17
71966;BME280;59836;52.132;5.442;2023-03-31T02:07:59;100097.66;;;10.31;93.72
71966;BME280;59836;52.132;5.442;2023-03-31T02:10:29;100090.03;;;10.33;94.24
71966;BME280;59836;52.132;5.442;2023-03-31T02:12:59;100077.59;;;10.32;94.03
71966;BME280;59836;52.132;5.442;2023-03-31T02:15:29;100076.22;;;10.35;94.13
71966;BME280;59836;52.132;5.442;2023-03-31T02:18:00;100077.00;;;10.36;94.34
71966;BME280;59836;52.132;5.442;2023-03-31T02:20:29;100069.16;;;10.39;93.88
71966;BME280;59836;52.132;5.442;2023-03-31T02:22:58;100061.25;;;10.38;94.12
71966;BME280;59836;52.132;5.442;2023-03-31T02:25:32;100059.94;;;10.40;93.97
71966;BME280;59836;52.132;5.442;2023-03-31T02:28:07;100055.31;;;10.41;93.93
71966;BME280;59836;52.132;5.442;2023-03-31T02:30:43;100042.25;;;10.43;94.16
71966;BME280;59836;52.132;5.442;2023-03-31T02:33:11;100034.66;;;10.45;94.30
71966;BME280;59836;52.132;5.442;2023-03-31T02:35:37;100025.44;;;10.46;94.17
71966;BME280;59836;52.132;5.442;2023-03-31T02:38:04;100025.44;;;10.46;94.16
71966;BME280;59836;52.132;5.442;2023-03-31T02:40:31;100015.41;;;10.46;93.84
71966;BME280;59836;52.132;5.442;2023-03-31T02:42:58;100006.19;;;10.47;94.15
71966;BME280;59836;52.132;5.442;2023-03-31T02:45:48;100003.75;;;10.46;94.10
71966;BME280;59836;52.132;5.442;2023-03-31T02:48:28;99997.78;;;10.44;94.50
71966;BME280;59836;52.132;5.442;2023-03-31T02:56:50;99971.22;;;10.46;94.83
71966;BME280;59836;52.132;5.442;2023-03-31T02:59:41;99965.00;;;10.45;94.51
71966;BME280;59836;52.132;5.442;2023-03-31T03:05:25;99952.28;;;10.41;95.40
71966;BME280;59836;52.132;5.442;2023-03-31T03:11:04;99936.53;;;10.43;95.18
71966;BME280;59836;52.132;5.442;2023-03-31T03:16:32;99916.31;;;10.35;95.27
71966;BME280;59836;52.132;5.442;2023-03-31T03:19:04;99913.28;;;10.37;95.03
71966;BME280;59836;52.132;5.442;2023-03-31T03:21:32;99905.47;;;10.35;95.27
71966;BME280;59836;52.132;5.442;2023-03-31T03:23:58;99910.56;;;10.37;95.02
71966;BME280;59836;52.132;5.442;2023-03-31T03:26:26;99900.31;;;10.33;95.13
71966;BME280;59836;52.132;5.442;2023-03-31T03:28:55;99903.34;;;10.32;95.29
71966;BME280;59836;52.132;5.442;2023-03-31T03:31:22;99891.97;;;10.30;94.82
71966;BME280;59836;52.132;5.442;2023-03-31T03:33:51;99891.16;;;10.29;94.92
71966;BME280;59836;52.132;5.442;2023-03-31T03:36:18;99881.13;;;10.30;94.83
71966;BME280;59836;52.132;5.442;2023-03-31T03:38:45;99888.44;;;10.29;95.28
71966;BME280;59836;52.132;5.442;2023-03-31T03:41:11;99877.31;;;10.31;94.96
71966;BME280;59836;52.132;5.442;2023-03-31T03:43:37;99872.19;;;10.29;95.29
71966;BME280;59836;52.132;5.442;2023-03-31T03:46:04;99862.44;;;10.28;95.25
71966;BME280;59836;52.132;5.442;2023-03-31T03:48:31;99844.56;;;10.27;94.95
71966;BME280;59836;52.132;5.442;2023-03-31T03:51:00;99843.25;;;10.25;95.18
71966;BME280;59836;52.132;5.442;2023-03-31T03:53:27;99836.50;;;10.22;94.98
71966;BME280;59836;52.132;5.442;2023-03-31T03:55:53;99831.09;;;10.22;95.15
71966;BME280;59836;52.132;5.442;2023-03-31T03:58:20;99827.28;;;10.23;94.98
71966;BME280;59836;52.132;5.442;2023-03-31T04:00:46;99825.66;;;10.22;95.04
71966;BME280;59836;52.132;5.442;2023-03-31T04:03:13;99818.44;;;10.17;95.79
71966;BME280;59836;52.132;5.442;2023-03-31T04:05:40;99823.03;;;10.17;95.61
71966;BME280;59836;52.132;5.442;2023-03-31T04:08:06;99812.50;;;10.15;95.64
71966;BME280;59836;52.132;5.442;2023-03-31T04:10:34;99809.53;;;10.12;95.43
71966;BME280;59836;52.132;5.442;2023-03-31T04:13:01;99813.88;;;10.13;95.66
71966;BME280;59836;52.132;5.442;2023-03-31T04:15:28;99799.28;;;10.09;95.57
71966;BME280;59836;52.132;5.442;2023-03-31T04:17:54;99792.25;;;10.08;95.31
71966;BME280;59836;52.132;5.442;2023-03-31T04:20:23;99786.06;;;10.07;95.17
71966;BME280;59836;52.132;5.442;2023-03-31T04:22:53;99773.41;;;10.02;94.99
71966;BME280;59836;52.132;5.442;2023-03-31T04:25:20;99750.91;;;10.02;95.41
71966;BME280;59836;52.132;5.442;2023-03-31T04:27:49;99752.00;;;10.01;95.24
71966;BME280;59836;52.132;5.442;2023-03-31T04:30:21;99738.47;;;10.01;95.08
71966;BME280;59836;52.132;5.442;2023-03-31T04:32:54;99733.88;;;10.01;95.46
71966;BME280;59836;52.132;5.442;2023-03-31T04:35:21;99723.31;;;10.00;95.45
71966;BME280;59836;52.132;5.442;2023-03-31T04:37:49;99721.13;;;10.02;95.15
71966;BME280;59836;52.132;5.442;2023-03-31T04:40:18;99710.88;;;9.99;95.32
71966;BME280;59836;52.132;5.442;2023-03-31T04:42:44;99701.66;;;10.00;95.67
71966;BME280;59836;52.132;5.442;2023-03-31T04:45:11;99698.16;;;9.99;95.82
71966;BME280;59836;52.132;5.442;2023-03-31T04:47:38;99690.28;;;9.98;95.62
71966;BME280;59836;52.132;5.442;2023-03-31T04:50:05;99674.88;;;9.98;96.02
71966;BME280;59836;52.132;5.442;2023-03-31T04:52:31;99675.44;;;9.95;95.90
71966;BME280;59836;52.132;5.442;2023-03-31T04:54:58;99679.25;;;9.94;96.07
71966;BME280;59836;52.132;5.442;2023-03-31T04:57:24;99671.66;;;9.96;96.19
71966;BME280;59836;52.132;5.442;2023-03-31T04:59:51;99671.84;;;10.00;95.98
71966;BME280;59836;52.132;5.442;2023-03-31T05:02:17;99662.63;;;10.01;96.03
71966;BME280;59836;52.132;5.442;2023-03-31T05:04:50;99664.22;;;10.02;95.80
71966;BME280;59836;52.132;5.442;2023-03-31T05:07:18;99658.53;;;10.03;96.06
71966;BME280;59836;52.132;5.442;2023-03-31T05:09:44;99652.00;;;10.04;95.88
71966;BME280;59836;52.132;5.442;2023-03-31T05:12:11;99638.56;;;9.99;96.08
71966;BME280;59836;52.132;5.442;2023-03-31T05:14:38;99637.97;;;10.02;96.19
71966;BME280;59836;52.132;5.442;2023-03-31T05:17:04;99630.94;;;10.01;96.31
71966;BME280;59836;52.132;5.442;2023-03-31T05:19:31;99625.53;;;10.01;96.32
71966;BME280;59836;52.132;5.442;2023-03-31T05:21:57;99626.53;;;10.06;96.28
71966;BME280;59836;52.132;5.442;2023-03-31T05:24:23;99615.06;;;10.09;96.17
71966;BME280;59836;52.132;5.442;2023-03-31T05:26:50;99602.94;;;10.06;95.97
71966;BME280;59836;52.132;5.442;2023-03-31T05:29:18;99608.06;;;10.08;96.18
71966;BME280;59836;52.132;5.442;2023-03-31T05:31:45;99607.47;;;10.11;96.56
71966;BME280;59836;52.132;5.442;2023-03-31T05:34:12;99605.84;;;10.10;96.07
71966;BME280;59836;52.132;5.442;2023-03-31T05:36:39;99597.22;;;10.08;96.57
71966;BME280;59836;52.132;5.442;2023-03-31T05:39:05;99599.94;;;10.08;96.24
71966;BME280;59836;52.132;5.442;2023-03-31T05:41:33;99586.38;;;10.08;96.28
71966;BME280;59836;52.132;5.442;2023-03-31T05:44:00;99587.19;;;10.08;96.16
71966;BME280;59836;52.132;5.442;2023-03-31T05:46:27;99580.16;;;10.07;96.34
71966;BME280;59836;52.132;5.442;2023-03-31T05:48:53;99584.81;;;10.07;96.53
71966;BME280;59836;52.132;5.442;2023-03-31T05:51:22;99575.06;;;10.06;96.14
71966;BME280;59836;52.132;5.442;2023-03-31T05:53:54;99576.69;;;10.07;96.34
71966;BME280;59836;52.132;5.442;2023-03-31T05:56:22;99569.34;;;10.07;96.41
71966;BME280;59836;52.132;5.442;2023-03-31T05:58:50;99568.75;;;10.10;96.35
71966;BME280;59836;52.132;5.442;2023-03-31T06:01:17;99566.81;;;10.11;96.25
71966;BME280;59836;52.132;5.442;2023-03-31T06:03:49;99561.41;;;10.11;96.83
71966;BME280;59836;52.132;5.442;2023-03-31T06:06:17;99557.31;;;10.13;96.26
71966;BME280;59836;52.132;5.442;2023-03-31T06:08:47;99553.78;;;10.13;96.25
71966;BME280;59836;52.132;5.442;2023-03-31T06:11:16;99553.28;;;10.11;96.46
71966;BME280;59836;52.132;5.442;2023-03-31T06:13:45;99552.69;;;10.14;96.47
71966;BME280;59836;52.132;5.442;2023-03-31T06:16:12;99547.25;;;10.14;96.72
71966;BME280;59836;52.132;5.442;2023-03-31T06:18:40;99550.47;;;10.16;96.31
71966;BME280;59836;52.132;5.442;2023-03-31T06:21:07;99543.16;;;10.16;95.99
71966;BME280;59836;52.132;5.442;2023-03-31T06:23:36;99546.06;;;10.20;95.94
71966;BME280;59836;52.132;5.442;2023-03-31T06:26:06;99537.94;;;10.20;95.69
71966;BME280;59836;52.132;5.442;2023-03-31T06:28:34;99535.22;;;10.20;95.44
71966;BME280;59836;52.132;5.442;2023-03-31T06:31:06;99531.41;;;10.21;95.50
71966;BME280;59836;52.132;5.442;2023-03-31T06:33:33;99520.59;;;10.21;95.16
71966;BME280;59836;52.132;5.442;2023-03-31T06:36:00;99526.00;;;10.21;95.46
71966;BME280;59836;52.132;5.442;2023-03-31T06:38:29;99526.31;;;10.19;95.56
71966;BME280;59836;52.132;5.442;2023-03-31T06:40:56;99517.38;;;10.19;95.21
71966;BME280;59836;52.132;5.442;2023-03-31T06:43:22;99512.44;;;10.21;94.99
71966;BME280;59836;52.132;5.442;2023-03-31T06:45:49;99516.78;;;10.22;94.61
71966;BME280;59836;52.132;5.442;2023-03-31T06:48:19;99519.19;;;10.24;94.39
71966;BME280;59836;52.132;5.442;2023-03-31T06:50:46;99510.75;;;10.25;94.88
71966;BME280;59836;52.132;5.442;2023-03-31T06:53:12;99513.69;;;10.29;94.91
71966;BME280;59836;52.132;5.442;2023-03-31T06:55:39;99513.69;;;10.29;95.11
71966;BME280;59836;52.132;5.442;2023-03-31T06:58:05;99516.38;;;10.29;94.85
71966;BME280;59836;52.132;5.442;2023-03-31T07:00:32;99513.38;;;10.30;94.74
71966;BME280;59836;52.132;5.442;2023-03-31T07:02:59;99511.16;;;10.32;94.75
71966;BME280;59836;52.132;5.442;2023-03-31T07:05:26;99508.44;;;10.32;94.40
71966;BME280;59836;52.132;5.442;2023-03-31T07:07:55;99505.13;;;10.36;94.90
71966;BME280;59836;52.132;5.442;2023-03-31T07:10:23;99503.84;;;10.33;94.82
71966;BME280;59836;52.132;5.442;2023-03-31T07:12:49;99502.75;;;10.34;94.75
71966;BME280;59836;52.132;5.442;2023-03-31T07:15:16;99501.63;;;10.35;94.86
71966;BME280;59836;52.132;5.442;2023-03-31T07:17:43;99498.72;;;10.31;94.59
71966;BME280;59836;52.132;5.442;2023-03-31T07:20:12;99494.91;;;10.32;94.85
71966;BME280;59836;52.132;5.442;2023-03-31T07:22:41;99505.75;;;10.32;95.04
71966;BME280;59836;52.132;5.442;2023-03-31T07:25:09;99507.84;;;10.36;95.36
71966;BME280;59836;52.132;5.442;2023-03-31T07:27:36;99491.09;;;10.33;95.48
71966;BME280;59836;52.132;5.442;2023-03-31T07:30:07;99493.78;;;10.33;95.35
71966;BME280;59836;52.132;5.442;2023-03-31T07:32:34;99482.94;;;10.33;95.32
71966;BME280;59836;52.132;5.442;2023-03-31T07:35:06;99498.09;;;10.34;95.58
71966;BME280;59836;52.132;5.442;2023-03-31T07:37:37;99495.13;;;10.36;95.48
71966;BME280;59836;52.132;5.442;2023-03-31T07:40:04;99486.75;;;10.32;95.50
71966;BME280;59836;52.132;5.442;2023-03-31T07:42:32;99491.69;;;10.30;96.27
71966;BME280;59836;52.132;5.442;2023-03-31T07:44:59;99488.69;;;10.32;96.38
71966;BME280;59836;52.132;5.442;2023-03-31T07:47:26;99485.66;;;10.33;96.31
71966;BME280;59836;52.132;5.442;2023-03-31T07:49:53;99480.47;;;10.37;96.36
71966;BME280;59836;52.132;5.442;2023-03-31T07:52:19;99475.25;;;10.41;96.08
71966;BME280;59836;52.132;5.442;2023-03-31T07:54:46;99474.97;;;10.42;96.00
71966;BME280;59836;52.132;5.442;2023-03-31T07:57:14;99472.53;;;10.41;95.81
71966;BME280;59836;52.132;5.442;2023-03-31T07:59:42;99480.69;;;10.41;95.95
71966;BME280;59836;52.132;5.442;2023-03-31T08:02:12;99474.97;;;10.42;96.53
71966;BME280;59836;52.132;5.442;2023-03-31T08:04:39;99464.41;;;10.41;96.27
71966;BME280;59836;52.132;5.442;2023-03-31T08:07:08;99474.16;;;10.42;96.52
71966;BME280;59836;52.132;5.442;2023-03-31T08:09:35;99466.00;;;10.42;96.81
71966;BME280;59836;52.132;5.442;2023-03-31T08:12:01;99471.16;;;10.43;96.37
71966;BME280;59836;52.132;5.442;2023-03-31T08:14:28;99463.31;;;10.42;96.25
71966;BME280;59836;52.132;5.442;2023-03-31T08:17:06;99459.22;;;10.44;96.67
71966;BME280;59836;52.132;5.442;2023-03-31T08:19:32;99451.84;;;10.45;96.58
71966;BME280;59836;52.132;5.442;2023-03-31T08:21:59;99448.53;;;10.48;96.74
71966;BME280;59836;52.132;5.442;2023-03-31T08:24:25;99445.72;;;10.53;96.99
71966;BME280;59836;52.132;5.442;2023-03-31T08:26:51;99445.63;;;10.58;97.04
71966;BME280;59836;52.132;5.442;2023-03-31T08:29:18;99435.78;;;10.62;96.87
71966;BME280;59836;52.132;5.442;2023-03-31T08:31:44;99440.09;;;10.63;97.24
71966;BME280;59836;52.132;5.442;2023-03-31T08:34:11;99435.44;;;10.64;96.65
71966;BME280;59836;52.132;5.442;2023-03-31T08:36:37;99438.47;;;10.62;96.90
71966;BME280;59836;52.132;5.442;2023-03-31T08:39:04;99436.88;;;10.61;97.18
71966;BME280;59836;52.132;5.442;2023-03-31T08:44:35;99432.44;;;10.66;96.91
71966;BME280;59836;52.132;5.442;2023-03-31T08:47:04;99424.81;;;10.68;97.07
71966;BME280;59836;52.132;5.442;2023-03-31T08:49:40;99423.09;;;10.72;96.52
71966;BME280;59836;52.132;5.442;2023-03-31T08:52:13;99424.09;;;10.76;97.03
71966;BME280;59836;52.132;5.442;2023-03-31T08:54:42;99414.22;;;10.80;96.68
71966;BME280;59836;52.132;5.442;2023-03-31T08:57:21;99427.34;;;10.87;96.31
71966;BME280;59836;52.132;5.442;2023-03-31T08:59:50;99416.22;;;10.88;96.48
71966;BME280;59836;52.132;5.442;2023-03-31T09:02:39;99413.38;;;10.93;96.69
71966;BME280;59836;52.132;5.442;2023-03-31T09:08:04;99411.03;;;11.01;96.87
71966;BME280;59836;52.132;5.442;2023-03-31T09:10:40;99404.50;;;11.02;96.68
71966;BME280;59836;52.132;5.442;2023-03-31T09:15:44;99404.38;;;11.07;96.96
71966;BME280;59836;52.132;5.442;2023-03-31T09:18:34;99401.97;;;11.05;97.04
71966;BME280;59836;52.132;5.442;2023-03-31T09:21:09;99395.16;;;11.08;97.04
71966;BME280;59836;52.132;5.442;2023-03-31T09:23:54;99402.66;;;11.11;96.91
71966;BME280;59836;52.132;5.442;2023-03-31T09:26:33;99384.94;;;11.14;96.52
71966;BME280;59836;52.132;5.442;2023-03-31T09:29:04;99383.22;;;11.18;97.29
71966;BME280;59836;52.132;5.442;2023-03-31T09:31:34;99387.09;;;11.26;97.23
71966;BME280;59836;52.132;5.442;2023-03-31T09:34:11;99375.81;;;11.32;96.73
71966;BME280;59836;52.132;5.442;2023-03-31T09:36:38;99375.34;;;11.39;95.99
71966;BME280;59836;52.132;5.442;2023-03-31T09:39:05;99369.16;;;11.47;95.98
71966;BME280;59836;52.132;5.442;2023-03-31T09:41:31;99375.56;;;11.51;95.86
71966;BME280;59836;52.132;5.442;2023-03-31T09:43:59;99373.34;;;11.54;94.78
71966;BME280;59836;52.132;5.442;2023-03-31T09:46:33;99352.75;;;11.52;94.35
71966;BME280;59836;52.132;5.442;2023-03-31T09:49:03;99367.44;;;11.51;94.60
71966;BME280;59836;52.132;5.442;2023-03-31T09:51:34;99369.53;;;11.55;94.50
71966;BME280;59836;52.132;5.442;2023-03-31T09:54:25;99362.34;;;11.59;93.92
71966;BME280;59836;52.132;5.442;2023-03-31T09:56:54;99365.06;;;11.59;93.67
71966;BME280;59836;52.132;5.442;2023-03-31T09:59:32;99371.47;;;11.63;93.63
71966;BME280;59836;52.132;5.442;2023-03-31T10:02:02;99364.94;;;11.73;94.47
71966;BME280;59836;52.132;5.442;2023-03-31T10:04:33;99366.91;;;11.81;94.10
71966;BME280;59836;52.132;5.442;2023-03-31T10:07:03;99361.16;;;11.82;93.90
71966;BME280;59836;52.132;5.442;2023-03-31T10:09:32;99360.69;;;11.80;93.01
71966;BME280;59836;52.132;5.442;2023-03-31T10:12:08;99359.56;;;11.81;93.33
71966;BME280;59836;52.132;5.442;2023-03-31T10:14:44;99352.53;;;11.89;93.41
71966;BME280;59836;52.132;5.442;2023-03-31T10:17:19;99352.88;;;11.96;92.05
71966;BME280;59836;52.132;5.442;2023-03-31T10:22:26;99339.69;;;12.13;91.14
71966;BME280;59836;52.132;5.442;2023-03-31T10:24:54;99344.66;;;12.19;90.48
71966;BME280;59836;52.132;5.442;2023-03-31T10:27:32;99337.47;;;12.32;90.91
71966;BME280;59836;52.132;5.442;2023-03-31T10:30:02;99338.75;;;12.44;89.45
71966;BME280;59836;52.132;5.442;2023-03-31T10:32:31;99337.16;;;12.43;88.87
71966;BME280;59836;52.132;5.442;2023-03-31T10:35:31;99336.19;;;12.38;88.31
71966;BME280;59836;52.132;5.442;2023-03-31T10:38:09;99326.78;;;12.36;87.40
71966;BME280;59836;52.132;5.442;2023-03-31T10:40:37;99332.22;;;12.36;87.60
71966;BME280;59836;52.132;5.442;2023-03-31T10:43:17;99322.44;;;12.44;87.59
71966;BME280;59836;52.132;5.442;2023-03-31T10:45:51;99313.81;;;12.50;87.22
71966;BME280;59836;52.132;5.442;2023-03-31T10:48:23;99309.97;;;12.51;86.77
71966;BME280;59836;52.132;5.442;2023-03-31T10:50:50;99316.19;;;12.52;86.89
71966;BME280;59836;52.132;5.442;2023-03-31T10:53:17;99307.91;;;12.48;85.55
71966;BME280;59836;52.132;5.442;2023-03-31T10:58:41;99312.53;;;12.48;87.33
71966;BME280;59836;52.132;5.442;2023-03-31T11:04:39;99318.44;;;12.32;86.41
71966;BME280;59836;52.132;5.442;2023-03-31T11:07:34;99309.31;;;12.28;86.27
71966;BME280;59836;52.132;5.442;2023-03-31T11:10:17;99322.28;;;12.22;86.29
71966;BME280;59836;52.132;5.442;2023-03-31T11:15:30;99312.53;;;12.13;87.21
71966;BME280;59836;52.132;5.442;2023-03-31T11:18:28;99314.13;;;12.14;88.18
71966;BME280;59836;52.132;5.442;2023-03-31T11:21:18;99309.31;;;12.10;88.05
71966;BME280;59836;52.132;5.442;2023-03-31T11:29:36;99302.78;;;12.12;88.18
71966;BME280;59836;52.132;5.442;2023-03-31T11:46:14;99289.19;;;12.12;86.81
71966;BME280;59836;52.132;5.442;2023-03-31T11:48:50;99298.47;;;12.10;87.00
71966;BME280;59836;52.132;5.442;2023-03-31T11:51:28;99299.56;;;12.09;87.62
71966;BME280;59836;52.132;5.442;2023-03-31T11:53:58;99304.19;;;12.00;88.25
71966;BME280;59836;52.132;5.442;2023-03-31T11:56:38;99302.22;;;11.92;89.19
71966;BME280;59836;52.132;5.442;2023-03-31T11:59:06;99299.00;;;11.81;89.95
71966;BME280;59836;52.132;5.442;2023-03-31T12:07:02;99298.00;;;11.68;90.75
71966;BME280;59836;52.132;5.442;2023-03-31T12:09:40;99296.56;;;11.62;91.34
71966;BME280;59836;52.132;5.442;2023-03-31T12:12:18;99296.69;;;11.57;91.91
71966;BME280;59836;52.132;5.442;2023-03-31T12:14:50;99289.19;;;11.54;92.03
71966;BME280;59836;52.132;5.442;2023-03-31T12:17:22;99281.50;;;11.47;92.82
71966;BME280;59836;52.132;5.442;2023-03-31T12:19:53;99276.88;;;11.47;93.10
71966;BME280;59836;52.132;5.442;2023-03-31T12:22:28;99269.84;;;11.46;92.78
71966;BME280;59836;52.132;5.442;2023-03-31T12:24:58;99268.22;;;11.45;92.89
71966;BME280;59836;52.132;5.442;2023-03-31T12:27:36;99263.44;;;11.42;91.97
71966;BME280;59836;52.132;5.442;2023-03-31T12:30:11;99278.88;;;11.33;91.57
71966;BME280;59836;52.132;5.442;2023-03-31T12:41:23;99264.69;;;11.36;93.74
71966;BME280;59836;52.132;5.442;2023-03-31T12:44:00;99265.50;;;11.36;93.85
71966;BME280;59836;52.132;5.442;2023-03-31T12:49:36;99258.91;;;11.29;93.23
71966;BME280;59836;52.132;5.442;2023-03-31T12:52:19;99240.88;;;11.24;93.28
71966;BME280;59836;52.132;5.442;2023-03-31T12:57:36;99245.97;;;11.26;93.49
71966;BME280;59836;52.132;5.442;2023-03-31T13:00:24;99246.94;;;11.30;93.90
71966;BME280;59836;52.132;5.442;2023-03-31T13:05:55;99234.34;;;11.34;93.77
71966;BME280;59836;52.132;5.442;2023-03-31T13:08:53;99228.28;;;11.37;93.83
71966;BME280;59836;52.132;5.442;2023-03-31T13:14:01;99220.97;;;11.46;94.83
71966;BME280;59836;52.132;5.442;2023-03-31T13:16:29;99212.69;;;11.51;94.94
71966;BME280;59836;52.132;5.442;2023-03-31T13:18:56;99213.66;;;11.56;94.86
71966;BME280;59836;52.132;5.442;2023-03-31T13:21:23;99213.16;;;11.54;93.86
71966;BME280;59836;52.132;5.442;2023-03-31T13:23:50;99208.84;;;11.52;94.51
71966;BME280;59836;52.132;5.442;2023-03-31T13:26:34;99201.19;;;11.55;94.52
71966;BME280;59836;52.132;5.442;2023-03-31T13:29:18;99207.72;;;11.54;94.13
71966;BME280;59836;52.132;5.442;2023-03-31T13:32:05;99203.41;;;11.52;94.52
71966;BME280;59836;52.132;5.442;2023-03-31T13:34:38;99215.38;;;11.51;94.19
71966;BME280;59836;52.132;5.442;2023-03-31T13:37:26;99199.25;;;11.46;94.36
71966;BME280;59836;52.132;5.442;2023-03-31T13:42:49;99198.28;;;11.42;94.16
71966;BME280;59836;52.132;5.442;2023-03-31T13:45:38;99199.09;;;11.43;93.78
71966;BME280;59836;52.132;5.442;2023-03-31T13:48:26;99197.16;;;11.43;92.99
71966;BME280;59836;52.132;5.442;2023-03-31T13:56:31;99193.81;;;11.46;93.96
71966;BME280;59836;52.132;5.442;2023-03-31T14:02:22;99193.19;;;11.49;94.56
71966;BME280;59836;52.132;5.442;2023-03-31T14:05:08;99194.63;;;11.47;94.90
71966;BME280;59836;52.132;5.442;2023-03-31T14:07:43;99194.63;;;11.47;94.89
71966;BME280;59836;52.132;5.442;2023-03-31T14:10:23;99186.78;;;11.45;94.75
71966;BME280;59836;52.132;5.442;2023-03-31T14:12:50;99187.44;;;11.42;95.06
71966;BME280;59836;52.132;5.442;2023-03-31T14:15:19;99182.16;;;11.37;94.71
71966;BME280;59836;52.132;5.442;2023-03-31T14:17:46;99180.69;;;11.31;94.88
71966;BME280;59836;52.132;5.442;2023-03-31T14:20:34;99179.22;;;11.25;94.89
71966;BME280;59836;52.132;5.442;2023-03-31T14:23:15;99167.25;;;11.26;94.53
71966;BME280;59836;52.132;5.442;2023-03-31T14:26:05;99170.00;;;11.34;94.30
71966;BME280;59836;52.132;5.442;2023-03-31T14:31:25;99159.50;;;11.42;94.33
71966;BME280;59836;52.132;5.442;2023-03-31T14:34:56;99157.25;;;11.44;94.68
71966;BME280;59836;52.132;5.442;2023-03-31T14:37:05;99153.25;;;11.41;94.69
71966;BME280;59836;52.132;5.442;2023-03-31T14:39:46;99148.31;;;11.43;94.30
71966;BME280;59836;52.132;5.442;2023-03-31T14:42:16;99145.59;;;11.43;94.20
71966;BME280;59836;52.132;5.442;2023-03-31T14:44:43;99145.75;;;11.38;94.36
71966;BME280;59836;52.132;5.442;2023-03-31T14:47:22;99150.84;;;11.31;94.53
71966;BME280;59836;52.132;5.442;2023-03-31T14:50:11;99142.84;;;11.26;93.98
71966;BME280;59836;52.132;5.442;2023-03-31T14:52:38;99145.22;;;11.18;93.97
71966;BME280;59836;52.132;5.442;2023-03-31T14:55:05;99143.63;;;11.17;94.48
71966;BME280;59836;52.132;5.442;2023-03-31T14:57:36;99155.44;;;11.21;94.24
71966;BME280;59836;52.132;5.442;2023-03-31T15:00:05;99153.41;;;11.27;93.96
71966;BME280;59836;52.132;5.442;2023-03-31T15:02:45;99155.31;;;11.35;94.24
71966;BME280;59836;52.132;5.442;2023-03-31T15:05:30;99157.06;;;11.40;94.10
71966;BME280;59836;52.132;5.442;2023-03-31T15:07:59;99149.13;;;11.44;94.29
71966;BME280;59836;52.132;5.442;2023-03-31T15:10:32;99156.63;;;11.47;94.50